Airfield :
LOGIN :

Register | Disclaimer

   EN    FR    IT 

 










Legend :    VFR   Marginal VFR   IFR   Intensive IFR   Very Intensive IFR
Visi :
Ceiling :
>= 8 km
>= 3000ft
5 to 8 km
1000 to 3000 ft
1500m to 5 km
500 to 1000 ft
800 to 1500m
200 to 500 ft
< 800m
< 200 ft
Symbols :   Thunderstorms  Fog  Heavy snow  Heavy precipitations  Wind > 20 kt
SIGMETs :     Misc.  Thunderstorms  Icing  Turbulence  Mountain Waves  Volcanic Ashes






- Airport Elevation : 2031 ft


LEGT - Madrid Getafe

CURRENT METAR :
  • 291000Z 30010KT 260V330 9999 FEW042 16/06 Q1010

EXPIRED METARs :
  • 290930Z 31011KT 9999 FEW040 15/06 Q1010
  • 290900Z 30010KT 260V330 9999 FEW040 15/06 Q1009
  • 290830Z 28010KT 250V310 9999 FEW040 15/06 Q1010
  • 290800Z 27012KT CAVOK 14/06 Q1009
  • 290730Z 28011KT 240V310 9999 FEW040 14/06 Q1010

TAF TAF LEGT
Valid from the 29 at 06:00 until the 30 at 06:00 UTC


290500Z 2906/3006 29010KT CAVOK TX18/2915Z TN09/3006Z
TEMPO 2906/2908 VRB05KT
PROB40
TEMPO 2908/2918 29015G25KT
BECMG 2916/2918 VRB05KT
PROB30
TEMPO 2912/2918 RA SCT030



MET'MAP, your aeronautical weather chart ! - Copyright ORBIFLY December 2007 - Disclaimer

ORBIFLY MET'MAP TEAM :

Programming & Development : Alexandra Zaïnal
Original concept : Baudouin d'Aumeries
Technical & hardware support : Manuel Goepfert
Assistance : Marc-Olivier Méhu




SOURCES & CREDITS :

   NOAA